KFZG

Fitzgerald Municipal Airport

Fitzgerald, Georgia, USA
METAR KFZG 171815Z AUTO 36005KT 10SM BKN034 OVC044 31/23 A3016 RMK AO2 T03130230
Observed Flight Rules
Oct-17 @ 18:15 UTC (5 minutes ago) Visual Flight Rules
Wind Visibility Clouds
360° at 5 knots 10 miles
  • Broken at 3,400' AGL
  • Overcast at 4,400' AGL
Temperatures Readings
Current 31°C / 88°F
Dewpoint 23°C / 73°F
Humidity 62%
Altimeter 30.16" Hg
Pressure 1021 hPa
Elevation 111
METAR KFZG 171815Z AUTO 36005KT 10SM BKN034 OVC044 31/23 A3016 RMK AO2 T03130230
Observed Flight Rules
Oct-17 @ 18:15 UTC
(5 minutes ago)
VFR
Wind Visibility
360° at 5 knots 10 miles
Clouds
  • Broken at 3,400' AGL
  • Overcast at 4,400' AGL
Temperature Dewpoint
31°C / 88°F 23°C / 73°F
Humidity Altimeter Pressure
62% 30.16" Hg 1021 hPa